createdAt,value
2022-11-27T00:02:17.433Z,25.47
2022-11-27T00:05:03.746Z,31.60
2022-11-27T00:07:51.379Z,26.30
2022-11-27T00:10:37.775Z,23.27
2022-11-27T00:13:24.416Z,23.90
2022-11-27T00:16:11.262Z,32.90
2022-11-27T00:18:58.131Z,30.67
2022-11-27T00:21:44.311Z,26.87
2022-11-27T00:24:32.292Z,30.30
2022-11-27T00:27:18.788Z,21.80
2022-11-27T00:30:05.882Z,31.77
2022-11-27T00:32:52.167Z,32.07
2022-11-27T00:35:39.811Z,21.40
2022-11-27T00:38:26.152Z,25.37
2022-11-27T00:41:17.479Z,24.00
2022-11-27T00:44:04.384Z,27.37
2022-11-27T00:46:50.996Z,25.20
2022-11-27T00:49:38.183Z,24.70
2022-11-27T00:52:24.747Z,26.97
2022-11-27T00:55:11.236Z,22.37
2022-11-27T00:57:59.251Z,19.87
2022-11-27T01:00:45.773Z,20.37
2022-11-27T01:03:33.433Z,20.80
2022-11-27T01:06:21.402Z,32.00
2022-11-27T01:09:08.131Z,29.13
2022-11-27T01:11:54.199Z,29.80
2022-11-27T01:14:42.150Z,25.37
2022-11-27T01:17:28.725Z,28.63
2022-11-27T01:20:15.101Z,26.57
2022-11-27T01:23:01.702Z,30.63
2022-11-27T01:25:48.208Z,24.83
2022-11-27T01:28:35.235Z,33.40
2022-11-27T01:31:25.796Z,29.93
2022-11-27T01:34:15.949Z,30.47
2022-11-27T01:37:02.029Z,35.40
2022-11-27T01:39:48.409Z,38.03
2022-11-27T01:42:34.820Z,34.23
2022-11-27T01:45:22.655Z,28.67
2022-11-27T01:48:14.344Z,28.10
2022-11-27T01:51:01.312Z,33.30
2022-11-27T01:53:48.148Z,29.67
2022-11-27T01:56:34.377Z,34.67
2022-11-27T01:59:20.843Z,30.63
2022-11-27T02:02:07.498Z,32.17
2022-11-27T02:04:56.159Z,30.50
2022-11-27T02:07:42.738Z,25.37
2022-11-27T02:10:39.145Z,29.60
2022-11-27T02:13:31.951Z,26.93
2022-11-27T02:16:25.721Z,24.47
2022-11-27T02:19:26.384Z,30.77
2022-11-27T02:22:26.423Z,24.20
2022-11-27T02:25:21.791Z,24.47
2022-11-27T02:28:32.062Z,23.30
2022-11-27T02:31:25.969Z,26.70
2022-11-27T02:34:21.771Z,20.50
2022-11-27T02:37:13.036Z,20.50
2022-11-27T02:40:05.668Z,20.40
2022-11-27T02:42:57.660Z,20.23
2022-11-27T02:45:46.919Z,21.23
2022-11-27T02:48:43.722Z,20.97
2022-11-27T02:51:35.361Z,19.60
2022-11-27T02:54:27.044Z,20.37
2022-11-27T02:57:15.646Z,17.03
2022-11-27T03:00:04.585Z,17.20
2022-11-27T03:02:54.174Z,19.10
2022-11-27T03:05:46.167Z,17.90
2022-11-27T03:08:37.522Z,23.43
2022-11-27T03:11:24.663Z,19.23
2022-11-27T03:14:11.498Z,17.93
2022-11-27T03:17:03.375Z,18.37
2022-11-27T03:19:54.271Z,16.93
2022-11-27T03:22:42.322Z,20.10
2022-11-27T03:25:29.436Z,22.53
2022-11-27T03:28:16.692Z,16.73
2022-11-27T03:31:02.960Z,20.57
2022-11-27T03:33:49.550Z,17.47
2022-11-27T03:36:35.820Z,15.67
2022-11-27T03:39:25.919Z,18.33
2022-11-27T03:42:19.914Z,18.17
2022-11-27T03:45:14.350Z,17.47
2022-11-27T03:48:10.853Z,18.27
2022-11-27T03:51:08.195Z,24.37
2022-11-27T03:54:05.009Z,17.20
2022-11-27T03:56:57.731Z,20.77
2022-11-27T03:59:46.787Z,18.67
2022-11-27T04:02:41.539Z,17.93
2022-11-27T04:05:27.834Z,18.07
2022-11-27T04:08:14.395Z,16.03
2022-11-27T04:11:00.654Z,20.57
2022-11-27T04:13:48.330Z,18.60
2022-11-27T04:16:34.602Z,15.53
2022-11-27T04:19:21.105Z,20.77
2022-11-27T04:22:07.379Z,19.33
2022-11-27T04:24:53.763Z,19.60
2022-11-27T04:27:40.060Z,18.77
2022-11-27T04:30:27.649Z,21.67
2022-11-27T04:33:13.800Z,20.93
2022-11-27T04:36:00.419Z,19.10
2022-11-27T04:38:46.650Z,18.33
2022-11-27T04:41:33.339Z,22.80
2022-11-27T04:44:22.542Z,21.33
2022-11-27T04:47:10.135Z,22.93
2022-11-27T04:49:56.422Z,25.30
2022-11-27T04:52:43.080Z,26.37
2022-11-27T04:55:30.064Z,25.67
2022-11-27T04:58:16.278Z,21.57
2022-11-27T05:01:02.541Z,24.50
2022-11-27T05:03:50.411Z,24.93
2022-11-27T05:06:36.516Z,23.03
2022-11-27T05:09:23.159Z,24.03
2022-11-27T05:12:09.627Z,28.20
2022-11-27T05:14:55.870Z,23.50
2022-11-27T05:17:42.296Z,27.03
2022-11-27T05:20:30.203Z,25.20
2022-11-27T05:23:16.423Z,20.93
2022-11-27T05:26:03.391Z,25.07
2022-11-27T05:28:49.888Z,25.37
2022-11-27T05:31:36.979Z,22.80
2022-11-27T05:34:23.850Z,19.90
2022-11-27T05:37:16.471Z,25.10
2022-11-27T05:40:07.031Z,18.53
2022-11-27T05:42:53.223Z,21.30
2022-11-27T05:45:39.507Z,25.87
2022-11-27T05:48:26.174Z,21.80
2022-11-27T05:51:12.432Z,26.97
2022-11-27T05:54:00.249Z,22.53
2022-11-27T05:56:46.696Z,22.50
2022-11-27T05:59:33.091Z,14.97
2022-11-27T06:02:23.728Z,24.00
2022-11-27T06:05:12.681Z,19.97
2022-11-27T06:07:59.015Z,19.17
2022-11-27T06:10:46.854Z,15.77
2022-11-27T06:13:32.862Z,14.37
2022-11-27T06:16:21.284Z,16.10
2022-11-27T06:19:08.392Z,18.77
2022-11-27T06:21:54.912Z,18.30
2022-11-27T06:24:41.678Z,20.33
2022-11-27T06:27:33.611Z,18.10
2022-11-27T06:30:20.042Z,21.10
2022-11-27T06:33:06.193Z,21.10
2022-11-27T06:35:52.531Z,18.60
2022-11-27T06:38:40.017Z,26.17
2022-11-27T06:41:27.186Z,26.37
2022-11-27T06:44:14.783Z,17.43
2022-11-27T06:47:01.196Z,23.83
2022-11-27T06:49:47.735Z,20.70
2022-11-27T06:52:38.824Z,21.20
2022-11-27T06:55:27.047Z,19.67
2022-11-27T06:58:13.515Z,17.63
2022-11-27T07:01:02.107Z,18.20
2022-11-27T07:03:48.503Z,14.47
2022-11-27T07:06:35.031Z,18.83
2022-11-27T07:09:21.223Z,15.47
2022-11-27T07:12:08.223Z,16.63
2022-11-27T07:14:54.683Z,14.97
2022-11-27T07:17:42.625Z,17.43
2022-11-27T07:20:28.823Z,20.13
2022-11-27T07:23:15.515Z,16.90
2022-11-27T07:26:06.592Z,19.47
2022-11-27T07:28:53.515Z,19.47
2022-11-27T07:31:39.739Z,26.70
2022-11-27T07:34:27.154Z,29.80
2022-11-27T07:37:13.412Z,20.87
2022-11-27T07:40:03.064Z,17.90
2022-11-27T07:42:49.836Z,18.30
2022-11-27T07:45:36.425Z,16.90
2022-11-27T07:48:22.608Z,23.97
2022-11-27T07:51:13.388Z,17.90
2022-11-27T07:54:00.913Z,18.03
2022-11-27T07:56:47.584Z,17.50
2022-11-27T07:59:33.845Z,21.43
2022-11-27T08:02:20.219Z,18.30
2022-11-27T08:05:12.444Z,18.03
2022-11-27T08:08:04.183Z,14.87
2022-11-27T08:10:50.539Z,15.87
2022-11-27T08:13:37.027Z,18.10
2022-11-27T08:16:23.524Z,18.07
2022-11-27T08:19:11.401Z,20.13
2022-11-27T08:21:58.306Z,18.63
2022-11-27T08:24:48.009Z,17.10
2022-11-27T08:27:34.531Z,18.50
2022-11-27T08:30:23.599Z,21.53
2022-11-27T08:33:11.179Z,17.73
2022-11-27T08:35:58.044Z,17.07
2022-11-27T08:38:44.589Z,20.73
2022-11-27T08:41:32.527Z,17.90
2022-11-27T08:44:18.980Z,14.80
2022-11-27T08:47:05.552Z,15.63
2022-11-27T08:49:51.748Z,20.50
2022-11-27T08:52:38.243Z,18.57
2022-11-27T08:55:24.821Z,21.27
2022-11-27T08:58:12.658Z,21.37
2022-11-27T09:00:58.959Z,23.83
2022-11-27T09:03:45.689Z,18.80
2022-11-27T09:06:34.709Z,20.93
2022-11-27T09:09:21.195Z,20.87
2022-11-27T09:12:08.159Z,25.00
2022-11-27T09:14:55.956Z,25.13
2022-11-27T09:17:42.176Z,28.93
2022-11-27T09:20:28.761Z,26.33
2022-11-27T09:23:14.923Z,26.60
2022-11-27T09:26:01.857Z,25.03
2022-11-27T09:28:48.662Z,22.07
2022-11-27T09:31:36.445Z,16.53
2022-11-27T09:34:22.609Z,16.90
2022-11-27T09:37:08.937Z,14.13
2022-11-27T09:39:55.515Z,10.90
2022-11-27T09:42:47.370Z,14.07
2022-11-27T09:45:34.672Z,15.00
2022-11-27T09:48:28.591Z,12.70
2022-11-27T09:51:22.160Z,12.40
2022-11-27T09:54:16.742Z,12.63
2022-11-27T09:57:04.217Z,11.57
2022-11-27T09:59:53.259Z,14.00
2022-11-27T10:02:41.854Z,13.77
2022-11-27T10:05:36.552Z,12.40
2022-11-27T10:08:32.662Z,16.97
2022-11-27T10:11:30.102Z,15.70
2022-11-27T10:14:33.875Z,11.40
2022-11-27T10:17:24.207Z,13.97
2022-11-27T10:20:28.619Z,10.10
2022-11-27T10:23:28.260Z,13.63
2022-11-27T10:26:19.456Z,11.70
2022-11-27T10:29:13.703Z,14.47
2022-11-27T10:32:02.928Z,14.50
2022-11-27T10:34:54.070Z,14.50
2022-11-27T10:37:44.154Z,13.67
2022-11-27T10:40:37.207Z,12.77
2022-11-27T10:43:24.879Z,13.70
2022-11-27T10:46:15.759Z,11.83
2022-11-27T10:49:01.992Z,10.73
2022-11-27T10:51:48.688Z,15.47
2022-11-27T10:54:40.050Z,11.57
2022-11-27T10:57:45.058Z,14.37
2022-11-27T11:00:31.778Z,11.67
2022-11-27T11:03:19.257Z,11.70
2022-11-27T11:06:20.844Z,11.63
2022-11-27T11:09:15.064Z,11.97
2022-11-27T11:12:08.484Z,14.37
2022-11-27T11:14:58.725Z,11.97
2022-11-27T11:17:45.012Z,11.07
2022-11-27T11:20:31.364Z,10.87
2022-11-27T11:23:28.807Z,10.03
2022-11-27T11:26:27.256Z,9.90
2022-11-27T11:29:27.938Z,10.77
2022-11-27T11:32:24.440Z,10.63
2022-11-27T11:35:25.546Z,9.57
2022-11-27T11:38:19.098Z,10.40
2022-11-27T11:41:07.977Z,13.77
2022-11-27T11:43:57.727Z,12.00
2022-11-27T11:46:53.643Z,14.23
2022-11-27T11:49:41.473Z,13.70
2022-11-27T11:52:42.656Z,12.00
2022-11-27T11:55:36.585Z,13.27
2022-11-27T11:58:38.000Z,9.00
2022-11-27T12:01:40.464Z,16.63
2022-11-27T12:04:59.986Z,14.60
2022-11-27T12:08:19.120Z,14.03
2022-11-27T12:11:13.711Z,11.50
2022-11-27T12:14:15.306Z,10.60
2022-11-27T12:17:12.414Z,12.73
2022-11-27T12:20:19.404Z,13.63
2022-11-27T12:23:50.552Z,11.70
2022-11-27T12:26:49.500Z,15.23
2022-11-27T12:29:58.947Z,14.07
2022-11-27T12:33:04.378Z,12.97
2022-11-27T12:35:59.960Z,11.13
2022-11-27T12:38:58.774Z,17.17
2022-11-27T12:42:01.094Z,11.03
2022-11-27T12:44:57.048Z,11.97
2022-11-27T12:47:45.139Z,12.90
2022-11-27T12:50:40.372Z,10.20
2022-11-27T12:53:35.790Z,11.80
2022-11-27T12:56:25.951Z,11.93
2022-11-27T12:59:17.908Z,14.47
2022-11-27T13:02:15.690Z,14.10
2022-11-27T13:05:05.251Z,21.50
2022-11-27T13:07:56.215Z,13.60
2022-11-27T13:10:47.951Z,15.40
2022-11-27T13:13:38.823Z,12.00
2022-11-27T13:16:31.267Z,12.00
2022-11-27T13:19:23.710Z,12.10
2022-11-27T13:22:14.357Z,13.57
2022-11-27T13:25:02.627Z,13.20
2022-11-27T13:27:52.765Z,11.60
2022-11-27T13:30:39.867Z,10.63
2022-11-27T13:33:36.911Z,13.27
2022-11-27T13:36:26.779Z,11.63
2022-11-27T13:39:24.310Z,17.37
2022-11-27T13:42:21.486Z,12.37
2022-11-27T13:45:20.409Z,12.50
2022-11-27T13:48:26.094Z,12.53
2022-11-27T13:51:23.067Z,13.77
2022-11-27T13:54:13.060Z,12.37
2022-11-27T13:57:11.232Z,11.07
2022-11-27T14:00:00.749Z,15.97
2022-11-27T14:02:50.892Z,13.87
2022-11-27T14:05:40.862Z,15.20
2022-11-27T14:08:31.418Z,15.27
2022-11-27T14:11:28.892Z,16.53
2022-11-27T14:14:19.748Z,17.77
2022-11-27T14:17:09.020Z,11.60
2022-11-27T14:20:07.404Z,18.83
2022-11-27T14:23:12.925Z,18.57
2022-11-27T14:26:06.902Z,15.20
2022-11-27T14:28:56.658Z,15.13
2022-11-27T14:31:44.470Z,12.03
2022-11-27T14:34:32.114Z,15.40
2022-11-27T14:37:25.122Z,15.53
2022-11-27T14:40:15.291Z,17.27
2022-11-27T14:43:09.252Z,15.07
2022-11-27T14:45:58.428Z,19.90
2022-11-27T14:48:47.050Z,14.07
2022-11-27T14:51:35.619Z,17.83
2022-11-27T14:54:27.471Z,12.07
2022-11-27T14:57:18.908Z,17.50
2022-11-27T15:00:16.083Z,14.80
2022-11-27T15:03:11.365Z,11.27
2022-11-27T15:05:59.963Z,17.90
2022-11-27T15:09:09.038Z,14.10
2022-11-27T15:12:09.468Z,15.03
2022-11-27T15:14:59.755Z,17.87
2022-11-27T15:17:50.327Z,12.93
2022-11-27T15:20:39.952Z,18.07
2022-11-27T15:23:28.922Z,16.07
2022-11-27T15:26:33.745Z,16.17
2022-11-27T15:29:37.684Z,14.73
2022-11-27T15:32:26.463Z,18.57
2022-11-27T15:35:16.931Z,19.50
2022-11-27T15:38:11.822Z,15.90
2022-11-27T15:41:01.616Z,12.10
2022-11-27T15:43:48.164Z,13.67
2022-11-27T15:46:36.475Z,12.40
2022-11-27T15:49:23.469Z,12.10
2022-11-27T15:52:09.519Z,21.23
2022-11-27T15:54:56.619Z,16.23
2022-11-27T15:57:43.336Z,14.63
2022-11-27T16:00:29.672Z,15.53
2022-11-27T16:03:17.319Z,18.43
2022-11-27T16:06:05.211Z,14.20
2022-11-27T16:08:55.411Z,13.50
2022-11-27T16:11:41.889Z,15.43
2022-11-27T16:14:28.451Z,13.50
2022-11-27T16:17:14.999Z,13.53
2022-11-27T16:20:03.554Z,11.40
2022-11-27T16:22:50.071Z,15.37
2022-11-27T16:25:39.067Z,15.57
2022-11-27T16:28:26.387Z,14.20
2022-11-27T16:31:14.949Z,11.53
2022-11-27T16:34:02.199Z,19.53
2022-11-27T16:36:50.495Z,19.77
2022-11-27T16:39:36.818Z,11.70
2022-11-27T16:42:23.061Z,13.47
2022-11-27T16:45:10.375Z,11.10
2022-11-27T16:47:57.162Z,10.73
2022-11-27T16:50:43.650Z,13.30
2022-11-27T16:53:31.427Z,12.10
2022-11-27T16:56:19.882Z,12.13
2022-11-27T16:59:09.663Z,10.80
2022-11-27T17:01:56.697Z,16.57
2022-11-27T17:04:43.586Z,16.57
2022-11-27T17:07:31.167Z,11.83
2022-11-27T17:10:19.195Z,13.80
2022-11-27T17:13:05.471Z,12.57
2022-11-27T17:15:51.896Z,9.30
2022-11-27T17:18:39.448Z,13.50
2022-11-27T17:21:27.916Z,14.87
2022-11-27T17:24:16.582Z,12.23
2022-11-27T17:27:04.526Z,13.47
2022-11-27T17:29:50.788Z,12.90
2022-11-27T17:32:36.911Z,12.77
2022-11-27T17:35:23.279Z,11.13
2022-11-27T17:38:09.666Z,14.50
2022-11-27T17:41:01.375Z,16.50
2022-11-27T17:43:49.545Z,11.83
2022-11-27T17:46:36.886Z,9.07
2022-11-27T17:49:23.097Z,9.40
2022-11-27T17:52:09.522Z,12.20
2022-11-27T17:54:55.790Z,12.20
2022-11-27T17:57:42.268Z,16.77
2022-11-27T18:00:30.045Z,17.00
2022-11-27T18:03:16.566Z,12.13
2022-11-27T18:06:04.483Z,12.57
2022-11-27T18:08:50.891Z,14.87
2022-11-27T18:11:37.567Z,14.27
2022-11-27T18:14:23.772Z,18.90
2022-11-27T18:17:11.337Z,14.63
2022-11-27T18:19:58.954Z,12.73
2022-11-27T18:22:45.780Z,14.87
2022-11-27T18:25:32.091Z,14.13
2022-11-27T18:28:18.420Z,14.10
2022-11-27T18:31:09.628Z,13.57
2022-11-27T18:33:58.696Z,12.27
2022-11-27T18:36:45.794Z,13.20
2022-11-27T18:39:32.404Z,12.83
2022-11-27T18:42:18.583Z,11.93
2022-11-27T18:45:05.101Z,18.03
2022-11-27T18:47:51.522Z,17.53
2022-11-27T18:50:39.309Z,14.40
2022-11-27T18:53:25.851Z,13.20
2022-11-27T18:56:13.645Z,15.37
2022-11-27T18:59:02.912Z,12.47
2022-11-27T19:01:49.283Z,14.60
2022-11-27T19:04:37.359Z,13.80
2022-11-27T19:07:27.233Z,14.80
2022-11-27T19:10:13.761Z,14.10
2022-11-27T19:12:59.934Z,11.10
2022-11-27T19:15:47.183Z,13.23
2022-11-27T19:18:33.855Z,15.03
2022-11-27T19:21:22.911Z,13.63
2022-11-27T19:24:11.487Z,15.17
2022-11-27T19:26:58.647Z,13.63
2022-11-27T19:29:45.361Z,13.57
2022-11-27T19:32:31.663Z,10.63
2022-11-27T19:35:22.009Z,18.07
2022-11-27T19:38:08.415Z,15.23
2022-11-27T19:40:56.283Z,14.53
2022-11-27T19:43:42.740Z,18.67
2022-11-27T19:46:30.876Z,12.50
2022-11-27T19:49:18.833Z,12.43
2022-11-27T19:52:05.380Z,22.30
2022-11-27T19:54:51.475Z,16.17
2022-11-27T19:57:39.739Z,13.83
2022-11-27T20:00:26.339Z,13.17
2022-11-27T20:03:12.862Z,17.80
2022-11-27T20:06:03.648Z,14.83
2022-11-27T20:08:51.420Z,16.13
2022-11-27T20:11:39.302Z,14.63
2022-11-27T20:14:27.212Z,12.73
2022-11-27T20:17:13.716Z,14.83
2022-11-27T20:20:00.599Z,14.30
2022-11-27T20:22:46.701Z,14.30
2022-11-27T20:25:33.089Z,16.43
2022-11-27T20:28:19.503Z,12.00
2022-11-27T20:31:07.108Z,14.13
2022-11-27T20:33:54.663Z,13.90
2022-11-27T20:36:41.200Z,13.97
2022-11-27T20:39:28.419Z,14.37
2022-11-27T20:42:14.740Z,15.47
2022-11-27T20:45:05.008Z,14.90
2022-11-27T20:47:52.920Z,14.60
2022-11-27T20:50:41.063Z,14.37
2022-11-27T20:53:27.716Z,15.43
2022-11-27T20:56:16.567Z,14.20
2022-11-27T20:59:04.848Z,17.93
2022-11-27T21:01:51.536Z,13.77
2022-11-27T21:04:39.415Z,14.67
2022-11-27T21:07:25.983Z,15.70
2022-11-27T21:10:13.880Z,13.50
2022-11-27T21:13:00.285Z,15.57
2022-11-27T21:15:47.099Z,22.87
2022-11-27T21:18:33.314Z,15.07
2022-11-27T21:21:21.036Z,15.63
2022-11-27T21:24:08.256Z,14.67
2022-11-27T21:26:55.100Z,13.90
2022-11-27T21:29:41.688Z,13.80
2022-11-27T21:32:28.254Z,15.50
2022-11-27T21:35:14.661Z,18.97
2022-11-27T21:38:02.343Z,14.27
2022-11-27T21:40:48.584Z,16.60
2022-11-27T21:43:35.011Z,14.87
2022-11-27T21:46:22.498Z,11.43
2022-11-27T21:49:08.951Z,13.67
2022-11-27T21:51:55.411Z,16.53
2022-11-27T21:54:43.248Z,13.37
2022-11-27T21:57:29.531Z,14.83
2022-11-27T22:00:16.380Z,12.13
2022-11-27T22:03:03.123Z,15.70
2022-11-27T22:05:57.487Z,13.63
2022-11-27T22:08:44.740Z,15.47
2022-11-27T22:11:32.557Z,15.73
2022-11-27T22:14:19.119Z,13.03
2022-11-27T22:17:05.345Z,14.97
2022-11-27T22:19:51.476Z,17.27
2022-11-27T22:22:37.755Z,11.80
2022-11-27T22:25:24.126Z,17.07
2022-11-27T22:28:11.791Z,15.60
2022-11-27T22:30:58.639Z,10.73
2022-11-27T22:33:46.136Z,14.20
2022-11-27T22:36:34.688Z,14.90
2022-11-27T22:39:20.964Z,11.47
2022-11-27T22:42:07.200Z,17.00
2022-11-27T22:44:54.791Z,13.50
2022-11-27T22:47:41.438Z,11.73
2022-11-27T22:50:27.721Z,13.47
2022-11-27T22:53:14.003Z,11.80
2022-11-27T22:56:05.500Z,11.80
2022-11-27T22:59:06.064Z,13.73
2022-11-27T23:01:59.943Z,13.63
2022-11-27T23:04:46.839Z,11.07
2022-11-27T23:07:33.091Z,10.37
2022-11-27T23:10:20.616Z,12.77
2022-11-27T23:13:08.327Z,16.93
2022-11-27T23:15:54.791Z,12.30
2022-11-27T23:18:42.537Z,11.43
2022-11-27T23:21:28.915Z,16.40
2022-11-27T23:24:15.910Z,12.20
2022-11-27T23:27:02.375Z,11.60
2022-11-27T23:29:49.083Z,11.93
2022-11-27T23:32:36.063Z,16.33
2022-11-27T23:35:23.942Z,10.80
2022-11-27T23:38:10.764Z,14.80
2022-11-27T23:40:57.388Z,14.67
2022-11-27T23:43:43.976Z,15.00
2022-11-27T23:46:31.495Z,14.63
2022-11-27T23:49:18.722Z,13.70
2022-11-27T23:52:06.691Z,15.20
2022-11-27T23:54:53.116Z,14.10
2022-11-27T23:57:39.635Z,13.97
